Manderson, WY

11:33 PM MST on January 28, 2015 (GMT -0700)
Town Center | Change Station
CLOSE
Current Station
Personal Weather Station
Location: Hyattville, WY
Elevation: 4459 ft
Nearby Weather Stations
Active Advisory: Special Statement Active Notice: Record Report

Elev 4459 ft 44.25 °N, 107.60 °W | Updated 3 minutes ago

Overcast
Overcast
30.7 °F
Feels Like 31 °F
N
0.0
Wind Variable Wind from ENE
Gusts 2.0 mph

Today
High -- | Low -- °F
--% Chance of Precip.
Yesterday
High -- | Low -- °F
Precip. -- in
7:34 AM 5:15 PM
Waxing Gibbous, 71% visible
Pressure 30.46 in
Visibility 0.2 miles
Clouds
Windchill 31 °F
Dew Point 29 °F
Humidity 93%
Rainfall 0.25 in
Snow Depth Not available.
UV Not available.
Pollen .10 out of 12
Air Quality Not available.
Flu Activity Not available.
METAR KGEY 290553Z AUTO 33004KT 1/4SM FG VV002 00/00 A3037 RMK AO2 SLP315 T00000000 10022 20000 51019

More Conditions Fewer Conditions

Pressure 30.46 in
Visibility 0.2 miles
Clouds
Windchill 31 °F
Dew Point 29 °F
Humidity 93%
Rainfall 0.25 in
Snow Depth Not available.
UV Not available.
Pollen .10 out of 12
Air Quality Not available.
Flu Activity Not available.
METAR KGEY 290553Z AUTO 33004KT 1/4SM FG VV002 00/00 A3037 RMK AO2 SLP315 T00000000 10022 20000 51019

More Conditions Fewer Conditions

10-Day Weather Forecast

Almanac

Astronomy

Jan. 28, 2015 Rise Set
Actual Time
Civil Twilight
Nautical Twilight
Astronomical Twilight
Moon
Length of Visible Light
Length of Day
Tomorrow will be .
, % of the Moon is Illuminated

Today's Extremes

State Highs State Lows

Community

WunderPhotos

Upload Photos

1,791,377 photos uploaded!

WunderBlogs® & News

Nearby

Air Quality

  Air Quality AQ Index Pollutant
Not available.

Snow Depth

Station Depth Elevation

Earthquake Activity

City Distance Mag. Time & Date
Minimum magnitude displayed is 2.5.

Coastal Water Temperatures

Place Temperature

Nearby Weather Stations